sensor_id;sensor_type;location;lat;lon;timestamp;pressure;altitude;pressure_sealevel;temperature;humidity
63281;BME280;49406;51.044;3.766;2023-12-04T00:01:57;101191.65;;;2.77;100.00
63281;BME280;49406;51.044;3.766;2023-12-04T00:04:32;101188.74;;;2.77;100.00
63281;BME280;49406;51.044;3.766;2023-12-04T00:07:06;101181.96;;;2.77;100.00
63281;BME280;49406;51.044;3.766;2023-12-04T00:09:40;101177.50;;;2.77;100.00
63281;BME280;49406;51.044;3.766;2023-12-04T00:12:15;101173.80;;;2.83;100.00
63281;BME280;49406;51.044;3.766;2023-12-04T00:14:52;101167.84;;;2.82;100.00
63281;BME280;49406;51.044;3.766;2023-12-04T00:17:26;101162.59;;;2.76;100.00
63281;BME280;49406;51.044;3.766;2023-12-04T00:20:01;101159.96;;;2.67;100.00
63281;BME280;49406;51.044;3.766;2023-12-04T00:22:35;101152.02;;;2.63;100.00
63281;BME280;49406;51.044;3.766;2023-12-04T00:25:10;101151.45;;;2.62;100.00
63281;BME280;49406;51.044;3.766;2023-12-04T00:27:44;101148.16;;;2.69;100.00
63281;BME280;49406;51.044;3.766;2023-12-04T00:30:19;101144.58;;;2.70;100.00
63281;BME280;49406;51.044;3.766;2023-12-04T00:32:54;101140.38;;;2.69;100.00
63281;BME280;49406;51.044;3.766;2023-12-04T00:35:28;101136.88;;;2.64;100.00
63281;BME280;49406;51.044;3.766;2023-12-04T00:38:04;101128.89;;;2.59;100.00
63281;BME280;49406;51.044;3.766;2023-12-04T00:40:39;101127.56;;;2.56;100.00
63281;BME280;49406;51.044;3.766;2023-12-04T00:43:14;101122.84;;;2.55;100.00
63281;BME280;49406;51.044;3.766;2023-12-04T00:45:50;101117.02;;;2.52;100.00
63281;BME280;49406;51.044;3.766;2023-12-04T00:48:25;101116.93;;;2.58;100.00
63281;BME280;49406;51.044;3.766;2023-12-04T00:51:00;101113.54;;;2.63;100.00
63281;BME280;49406;51.044;3.766;2023-12-04T00:53:34;101106.38;;;2.65;100.00
63281;BME280;49406;51.044;3.766;2023-12-04T00:56:11;101104.85;;;2.62;100.00
63281;BME280;49406;51.044;3.766;2023-12-04T00:58:47;101099.82;;;2.61;100.00
63281;BME280;49406;51.044;3.766;2023-12-04T01:01:23;101092.59;;;2.62;100.00
63281;BME280;49406;51.044;3.766;2023-12-04T01:03:57;101093.73;;;2.65;100.00
63281;BME280;49406;51.044;3.766;2023-12-04T01:06:33;101093.37;;;2.64;100.00
63281;BME280;49406;51.044;3.766;2023-12-04T01:09:07;101084.75;;;2.72;100.00
63281;BME280;49406;51.044;3.766;2023-12-04T01:11:40;101078.70;;;2.76;100.00
63281;BME280;49406;51.044;3.766;2023-12-04T01:14:15;101072.23;;;2.78;100.00
63281;BME280;49406;51.044;3.766;2023-12-04T01:16:50;101065.73;;;2.76;100.00
63281;BME280;49406;51.044;3.766;2023-12-04T01:19:24;101065.98;;;2.74;100.00
63281;BME280;49406;51.044;3.766;2023-12-04T01:21:59;101062.31;;;2.77;100.00
63281;BME280;49406;51.044;3.766;2023-12-04T01:24:33;101065.09;;;2.77;100.00
63281;BME280;49406;51.044;3.766;2023-12-04T01:27:07;101060.47;;;2.82;100.00
63281;BME280;49406;51.044;3.766;2023-12-04T01:29:42;101061.56;;;2.91;100.00
63281;BME280;49406;51.044;3.766;2023-12-04T01:32:17;101057.30;;;2.92;100.00
63281;BME280;49406;51.044;3.766;2023-12-04T01:34:51;101053.27;;;2.91;100.00
63281;BME280;49406;51.044;3.766;2023-12-04T01:37:26;101049.23;;;2.89;100.00
63281;BME280;49406;51.044;3.766;2023-12-04T01:40:00;101046.53;;;2.87;100.00
63281;BME280;49406;51.044;3.766;2023-12-04T01:42:35;101048.30;;;2.84;100.00
63281;BME280;49406;51.044;3.766;2023-12-04T01:45:08;101044.66;;;2.84;100.00
63281;BME280;49406;51.044;3.766;2023-12-04T01:47:43;101039.17;;;2.92;100.00
63281;BME280;49406;51.044;3.766;2023-12-04T01:50:18;101043.08;;;2.99;100.00
63281;BME280;49406;51.044;3.766;2023-12-04T01:52:53;101036.55;;;3.00;100.00
63281;BME280;49406;51.044;3.766;2023-12-04T01:55:28;101034.83;;;2.96;100.00
63281;BME280;49406;51.044;3.766;2023-12-04T01:58:03;101031.92;;;2.97;100.00
63281;BME280;49406;51.044;3.766;2023-12-04T02:00:38;101031.60;;;2.93;100.00
63281;BME280;49406;51.044;3.766;2023-12-04T02:03:13;101026.14;;;2.95;100.00
63281;BME280;49406;51.044;3.766;2023-12-04T02:05:48;101025.15;;;3.00;100.00
63281;BME280;49406;51.044;3.766;2023-12-04T02:08:26;101021.75;;;3.02;100.00
63281;BME280;49406;51.044;3.766;2023-12-04T02:11:00;101018.29;;;2.97;100.00
63281;BME280;49406;51.044;3.766;2023-12-04T02:13:35;101010.55;;;2.94;100.00
63281;BME280;49406;51.044;3.766;2023-12-04T02:16:10;101006.83;;;2.91;100.00
63281;BME280;49406;51.044;3.766;2023-12-04T02:18:45;100999.60;;;2.88;100.00
63281;BME280;49406;51.044;3.766;2023-12-04T02:21:20;100996.27;;;2.86;100.00
63281;BME280;49406;51.044;3.766;2023-12-04T02:23:54;100990.32;;;2.85;100.00
63281;BME280;49406;51.044;3.766;2023-12-04T02:26:34;100987.40;;;2.89;100.00
63281;BME280;49406;51.044;3.766;2023-12-04T02:29:14;100985.79;;;2.96;100.00
63281;BME280;49406;51.044;3.766;2023-12-04T02:31:52;100979.10;;;2.98;100.00
63281;BME280;49406;51.044;3.766;2023-12-04T02:34:29;100976.02;;;2.94;100.00
63281;BME280;49406;51.044;3.766;2023-12-04T02:37:07;100970.41;;;2.92;100.00
63281;BME280;49406;51.044;3.766;2023-12-04T02:39:43;100965.52;;;2.90;100.00
63281;BME280;49406;51.044;3.766;2023-12-04T02:42:17;100959.86;;;2.91;100.00
63281;BME280;49406;51.044;3.766;2023-12-04T02:44:52;100951.50;;;2.94;100.00
63281;BME280;49406;51.044;3.766;2023-12-04T02:47:26;100948.02;;;2.98;100.00
63281;BME280;49406;51.044;3.766;2023-12-04T02:50:01;100941.71;;;3.04;100.00
63281;BME280;49406;51.044;3.766;2023-12-04T02:52:35;100943.90;;;3.06;100.00
63281;BME280;49406;51.044;3.766;2023-12-04T02:55:10;100937.41;;;3.04;100.00
63281;BME280;49406;51.044;3.766;2023-12-04T02:57:44;100929.02;;;3.02;100.00
63281;BME280;49406;51.044;3.766;2023-12-04T03:00:20;100928.41;;;3.00;100.00
63281;BME280;49406;51.044;3.766;2023-12-04T03:02:54;100920.04;;;2.97;100.00
63281;BME280;49406;51.044;3.766;2023-12-04T03:05:28;100915.73;;;3.02;100.00
63281;BME280;49406;51.044;3.766;2023-12-04T03:08:03;100916.05;;;3.10;100.00
63281;BME280;49406;51.044;3.766;2023-12-04T03:10:38;100911.60;;;3.11;100.00
63281;BME280;49406;51.044;3.766;2023-12-04T03:13:12;100904.44;;;3.05;100.00
63281;BME280;49406;51.044;3.766;2023-12-04T03:15:46;100904.96;;;3.04;100.00
63281;BME280;49406;51.044;3.766;2023-12-04T03:18:21;100899.83;;;3.02;100.00
63281;BME280;49406;51.044;3.766;2023-12-04T03:20:56;100891.59;;;2.99;100.00
63281;BME280;49406;51.044;3.766;2023-12-04T03:23:30;100882.21;;;3.06;100.00
63281;BME280;49406;51.044;3.766;2023-12-04T03:26:05;100877.32;;;3.09;100.00
63281;BME280;49406;51.044;3.766;2023-12-04T03:28:40;100873.25;;;3.06;100.00
63281;BME280;49406;51.044;3.766;2023-12-04T03:31:15;100867.79;;;3.03;100.00
63281;BME280;49406;51.044;3.766;2023-12-04T03:33:49;100862.71;;;3.02;100.00
63281;BME280;49406;51.044;3.766;2023-12-04T03:36:24;100859.70;;;3.04;100.00
63281;BME280;49406;51.044;3.766;2023-12-04T03:38:58;100860.25;;;3.05;100.00
63281;BME280;49406;51.044;3.766;2023-12-04T03:41:33;100856.23;;;3.04;100.00
63281;BME280;49406;51.044;3.766;2023-12-04T03:44:07;100852.87;;;3.02;100.00
63281;BME280;49406;51.044;3.766;2023-12-04T03:46:41;100845.09;;;3.11;100.00
63281;BME280;49406;51.044;3.766;2023-12-04T03:49:16;100845.20;;;3.14;100.00
63281;BME280;49406;51.044;3.766;2023-12-04T03:51:50;100842.23;;;3.13;100.00
63281;BME280;49406;51.044;3.766;2023-12-04T03:54:25;100838.69;;;3.11;100.00
63281;BME280;49406;51.044;3.766;2023-12-04T03:56:57;100842.98;;;3.10;100.00
63281;BME280;49406;51.044;3.766;2023-12-04T03:59:32;100842.61;;;3.09;100.00
63281;BME280;49406;51.044;3.766;2023-12-04T04:02:06;100841.41;;;3.09;100.00
63281;BME280;49406;51.044;3.766;2023-12-04T04:04:40;100835.03;;;3.10;100.00
63281;BME280;49406;51.044;3.766;2023-12-04T04:07:16;100836.55;;;3.22;100.00
63281;BME280;49406;51.044;3.766;2023-12-04T04:09:51;100831.12;;;3.30;100.00
63281;BME280;49406;51.044;3.766;2023-12-04T04:12:25;100831.88;;;3.31;100.00
63281;BME280;49406;51.044;3.766;2023-12-04T04:15:00;100830.80;;;3.30;100.00
63281;BME280;49406;51.044;3.766;2023-12-04T04:17:34;100824.80;;;3.27;100.00
63281;BME280;49406;51.044;3.766;2023-12-04T04:20:10;100820.30;;;3.26;100.00
63281;BME280;49406;51.044;3.766;2023-12-04T04:22:47;100820.22;;;3.24;100.00
63281;BME280;49406;51.044;3.766;2023-12-04T04:25:21;100821.52;;;3.22;100.00
63281;BME280;49406;51.044;3.766;2023-12-04T04:27:57;100815.28;;;3.21;100.00
63281;BME280;49406;51.044;3.766;2023-12-04T04:30:31;100813.83;;;3.24;100.00
63281;BME280;49406;51.044;3.766;2023-12-04T04:33:05;100804.56;;;3.36;100.00
63281;BME280;49406;51.044;3.766;2023-12-04T04:35:40;100802.84;;;3.41;100.00
63281;BME280;49406;51.044;3.766;2023-12-04T04:38:14;100808.95;;;3.38;100.00
63281;BME280;49406;51.044;3.766;2023-12-04T04:40:47;100811.90;;;3.38;100.00
63281;BME280;49406;51.044;3.766;2023-12-04T04:43:21;100803.70;;;3.41;100.00
63281;BME280;49406;51.044;3.766;2023-12-04T04:45:56;100806.30;;;3.41;100.00
63281;BME280;49406;51.044;3.766;2023-12-04T04:48:30;100800.55;;;3.40;100.00
63281;BME280;49406;51.044;3.766;2023-12-04T04:51:05;100793.73;;;3.42;100.00
63281;BME280;49406;51.044;3.766;2023-12-04T04:53:40;100794.21;;;3.51;100.00
63281;BME280;49406;51.044;3.766;2023-12-04T04:56:15;100790.48;;;3.57;100.00
63281;BME280;49406;51.044;3.766;2023-12-04T04:58:49;100789.75;;;3.56;100.00
63281;BME280;49406;51.044;3.766;2023-12-04T05:01:24;100784.38;;;3.51;100.00
63281;BME280;49406;51.044;3.766;2023-12-04T05:03:58;100781.02;;;3.54;99.91
63281;BME280;49406;51.044;3.766;2023-12-04T05:06:33;100770.77;;;3.57;100.00
63281;BME280;49406;51.044;3.766;2023-12-04T05:09:06;100767.03;;;3.59;99.85
63281;BME280;49406;51.044;3.766;2023-12-04T05:11:40;100767.65;;;3.62;100.00
63281;BME280;49406;51.044;3.766;2023-12-04T05:14:14;100763.31;;;3.62;100.00
63281;BME280;49406;51.044;3.766;2023-12-04T05:16:49;100757.76;;;3.61;100.00
63281;BME280;49406;51.044;3.766;2023-12-04T05:19:23;100748.95;;;3.56;100.00
63281;BME280;49406;51.044;3.766;2023-12-04T05:21:58;100742.58;;;3.56;100.00
63281;BME280;49406;51.044;3.766;2023-12-04T05:24:32;100727.95;;;3.64;99.90
63281;BME280;49406;51.044;3.766;2023-12-04T05:27:07;100721.13;;;3.67;97.45
63281;BME280;49406;51.044;3.766;2023-12-04T05:29:41;100714.70;;;3.66;97.70
63281;BME280;49406;51.044;3.766;2023-12-04T05:32:16;100711.20;;;3.64;100.00
63281;BME280;49406;51.044;3.766;2023-12-04T05:34:50;100705.20;;;3.61;99.31
63281;BME280;49406;51.044;3.766;2023-12-04T05:37:24;100715.34;;;3.59;99.97
63281;BME280;49406;51.044;3.766;2023-12-04T05:39:59;100708.38;;;3.57;100.00
63281;BME280;49406;51.044;3.766;2023-12-04T05:42:33;100709.42;;;3.53;100.00
63281;BME280;49406;51.044;3.766;2023-12-04T05:45:08;100713.19;;;3.57;100.00
63281;BME280;49406;51.044;3.766;2023-12-04T05:47:43;100716.74;;;3.65;100.00
63281;BME280;49406;51.044;3.766;2023-12-04T05:50:18;100730.12;;;3.61;100.00
63281;BME280;49406;51.044;3.766;2023-12-04T05:52:52;100709.80;;;3.58;99.63
63281;BME280;49406;51.044;3.766;2023-12-04T05:55:27;100709.52;;;3.60;99.47
63281;BME280;49406;51.044;3.766;2023-12-04T05:58:01;100699.81;;;3.60;99.37
63281;BME280;49406;51.044;3.766;2023-12-04T06:00:34;100697.26;;;3.61;99.25
63281;BME280;49406;51.044;3.766;2023-12-04T06:03:09;100692.21;;;3.60;99.64
63281;BME280;49406;51.044;3.766;2023-12-04T06:05:43;100688.58;;;3.60;99.50
63281;BME280;49406;51.044;3.766;2023-12-04T06:08:18;100690.73;;;3.62;97.22
63281;BME280;49406;51.044;3.766;2023-12-04T06:10:52;100686.17;;;3.66;96.00
63281;BME280;49406;51.044;3.766;2023-12-04T06:13:27;100684.17;;;3.68;98.83
63281;BME280;49406;51.044;3.766;2023-12-04T06:16:01;100688.60;;;3.66;100.00
63281;BME280;49406;51.044;3.766;2023-12-04T06:18:34;100682.34;;;3.65;99.01
63281;BME280;49406;51.044;3.766;2023-12-04T06:21:09;100687.54;;;3.65;99.98
63281;BME280;49406;51.044;3.766;2023-12-04T06:23:44;100689.41;;;3.64;99.46
63281;BME280;49406;51.044;3.766;2023-12-04T06:26:20;100690.51;;;3.66;98.38
63281;BME280;49406;51.044;3.766;2023-12-04T06:28:55;100686.21;;;3.67;99.59
63281;BME280;49406;51.044;3.766;2023-12-04T06:31:30;100678.56;;;3.66;95.73
63281;BME280;49406;51.044;3.766;2023-12-04T06:34:06;100677.55;;;3.71;97.63
63281;BME280;49406;51.044;3.766;2023-12-04T06:36:41;100676.18;;;3.71;97.18
63281;BME280;49406;51.044;3.766;2023-12-04T06:39:17;100673.90;;;3.71;94.98
63281;BME280;49406;51.044;3.766;2023-12-04T06:41:53;100674.90;;;3.75;95.98
63281;BME280;49406;51.044;3.766;2023-12-04T06:44:28;100672.70;;;3.76;97.51
63281;BME280;49406;51.044;3.766;2023-12-04T06:47:03;100674.77;;;3.76;97.67
63281;BME280;49406;51.044;3.766;2023-12-04T06:49:38;100678.74;;;3.76;96.09
63281;BME280;49406;51.044;3.766;2023-12-04T06:52:12;100671.84;;;3.76;94.77
63281;BME280;49406;51.044;3.766;2023-12-04T06:54:47;100670.58;;;3.80;96.20
63281;BME280;49406;51.044;3.766;2023-12-04T06:57:21;100667.67;;;3.81;95.95
63281;BME280;49406;51.044;3.766;2023-12-04T06:59:56;100662.09;;;3.80;97.75
63281;BME280;49406;51.044;3.766;2023-12-04T07:02:30;100656.02;;;3.79;94.43
63281;BME280;49406;51.044;3.766;2023-12-04T07:05:05;100658.15;;;3.81;93.47
63281;BME280;49406;51.044;3.766;2023-12-04T07:07:40;100645.73;;;3.82;95.73
63281;BME280;49406;51.044;3.766;2023-12-04T07:10:13;100646.95;;;3.82;95.56
63281;BME280;49406;51.044;3.766;2023-12-04T07:12:47;100632.33;;;3.79;93.62
63281;BME280;49406;51.044;3.766;2023-12-04T07:15:22;100635.05;;;3.83;93.66
63281;BME280;49406;51.044;3.766;2023-12-04T07:17:56;100630.23;;;3.84;93.71
63281;BME280;49406;51.044;3.766;2023-12-04T07:20:30;100630.69;;;3.82;93.16
63281;BME280;49406;51.044;3.766;2023-12-04T07:23:05;100625.86;;;3.82;92.69
63281;BME280;49406;51.044;3.766;2023-12-04T07:25:39;100622.92;;;3.82;92.00
63281;BME280;49406;51.044;3.766;2023-12-04T07:28:14;100620.48;;;3.82;91.84
63281;BME280;49406;51.044;3.766;2023-12-04T07:30:48;100621.91;;;3.83;92.17
63281;BME280;49406;51.044;3.766;2023-12-04T07:33:23;100615.69;;;3.84;93.17
63281;BME280;49406;51.044;3.766;2023-12-04T07:35:57;100607.70;;;3.82;92.95
63281;BME280;49406;51.044;3.766;2023-12-04T07:38:31;100604.99;;;3.78;92.42
63281;BME280;49406;51.044;3.766;2023-12-04T07:41:06;100604.94;;;3.83;93.39
63281;BME280;49406;51.044;3.766;2023-12-04T07:43:41;100603.50;;;3.81;92.89
63281;BME280;49406;51.044;3.766;2023-12-04T07:46:16;100597.66;;;3.82;93.79
63281;BME280;49406;51.044;3.766;2023-12-04T07:48:50;100599.36;;;3.81;94.10
63281;BME280;49406;51.044;3.766;2023-12-04T07:51:24;100596.95;;;3.81;95.56
63281;BME280;49406;51.044;3.766;2023-12-04T07:53:59;100591.13;;;3.83;96.45
63281;BME280;49406;51.044;3.766;2023-12-04T07:56:34;100586.35;;;3.90;96.81
63281;BME280;49406;51.044;3.766;2023-12-04T07:59:08;100579.14;;;3.86;97.97
63281;BME280;49406;51.044;3.766;2023-12-04T08:01:42;100575.27;;;3.79;99.34
63281;BME280;49406;51.044;3.766;2023-12-04T08:04:17;100568.77;;;3.75;100.00
63281;BME280;49406;51.044;3.766;2023-12-04T08:06:52;100562.79;;;3.72;100.00
63281;BME280;49406;51.044;3.766;2023-12-04T08:09:26;100558.56;;;3.70;100.00
63281;BME280;49406;51.044;3.766;2023-12-04T08:12:01;100550.38;;;3.69;100.00
63281;BME280;49406;51.044;3.766;2023-12-04T08:14:35;100545.04;;;3.69;100.00
63281;BME280;49406;51.044;3.766;2023-12-04T08:17:10;100545.09;;;3.76;100.00
63281;BME280;49406;51.044;3.766;2023-12-04T08:19:45;100536.16;;;3.84;100.00
63281;BME280;49406;51.044;3.766;2023-12-04T08:22:19;100540.09;;;3.82;100.00
63281;BME280;49406;51.044;3.766;2023-12-04T08:24:54;100536.48;;;3.83;100.00
63281;BME280;49406;51.044;3.766;2023-12-04T08:27:28;100535.81;;;3.84;100.00
63281;BME280;49406;51.044;3.766;2023-12-04T08:30:03;100537.26;;;3.86;100.00
63281;BME280;49406;51.044;3.766;2023-12-04T08:32:37;100541.70;;;3.89;100.00
63281;BME280;49406;51.044;3.766;2023-12-04T08:35:12;100537.02;;;3.89;100.00
63281;BME280;49406;51.044;3.766;2023-12-04T08:37:46;100535.67;;;3.96;100.00
63281;BME280;49406;51.044;3.766;2023-12-04T08:40:21;100534.15;;;4.09;100.00
63281;BME280;49406;51.044;3.766;2023-12-04T08:42:55;100532.88;;;4.13;100.00
63281;BME280;49406;51.044;3.766;2023-12-04T08:45:30;100525.92;;;4.12;100.00
63281;BME280;49406;51.044;3.766;2023-12-04T08:48:05;100529.67;;;4.16;100.00
63281;BME280;49406;51.044;3.766;2023-12-04T08:50:39;100526.29;;;4.19;100.00
63281;BME280;49406;51.044;3.766;2023-12-04T08:53:14;100527.40;;;4.20;100.00
63281;BME280;49406;51.044;3.766;2023-12-04T08:55:48;100520.42;;;4.19;100.00
63281;BME280;49406;51.044;3.766;2023-12-04T08:58:24;100521.93;;;4.23;100.00
63281;BME280;49406;51.044;3.766;2023-12-04T09:00:59;100519.05;;;4.31;100.00
63281;BME280;49406;51.044;3.766;2023-12-04T09:03:33;100517.23;;;4.28;100.00
63281;BME280;49406;51.044;3.766;2023-12-04T09:06:06;100512.20;;;4.21;100.00
63281;BME280;49406;51.044;3.766;2023-12-04T09:08:41;100515.16;;;4.22;100.00
63281;BME280;49406;51.044;3.766;2023-12-04T09:11:15;100511.25;;;4.19;100.00
63281;BME280;49406;51.044;3.766;2023-12-04T09:13:50;100507.35;;;4.16;100.00
63281;BME280;49406;51.044;3.766;2023-12-04T09:16:24;100510.80;;;4.15;100.00
63281;BME280;49406;51.044;3.766;2023-12-04T09:18:59;100510.39;;;4.19;100.00
63281;BME280;49406;51.044;3.766;2023-12-04T09:21:33;100508.05;;;4.21;100.00
63281;BME280;49406;51.044;3.766;2023-12-04T09:24:08;100504.80;;;4.11;100.00
63281;BME280;49406;51.044;3.766;2023-12-04T09:26:43;100506.33;;;4.10;100.00
63281;BME280;49406;51.044;3.766;2023-12-04T09:29:17;100501.58;;;4.07;100.00
63281;BME280;49406;51.044;3.766;2023-12-04T09:31:51;100497.27;;;4.14;100.00
63281;BME280;49406;51.044;3.766;2023-12-04T09:34:25;100498.38;;;4.16;100.00
63281;BME280;49406;51.044;3.766;2023-12-04T09:37:00;100498.19;;;4.10;100.00
63281;BME280;49406;51.044;3.766;2023-12-04T09:39:34;100500.95;;;4.04;100.00
63281;BME280;49406;51.044;3.766;2023-12-04T09:42:09;100504.05;;;3.98;100.00
63281;BME280;49406;51.044;3.766;2023-12-04T09:44:43;100500.13;;;3.93;100.00
63281;BME280;49406;51.044;3.766;2023-12-04T09:47:20;100494.65;;;3.96;100.00
63281;BME280;49406;51.044;3.766;2023-12-04T09:49:56;100487.51;;;4.00;100.00
63281;BME280;49406;51.044;3.766;2023-12-04T09:52:31;100483.45;;;3.97;100.00
63281;BME280;49406;51.044;3.766;2023-12-04T09:55:08;100478.86;;;3.93;100.00
63281;BME280;49406;51.044;3.766;2023-12-04T09:57:43;100474.10;;;3.90;100.00
63281;BME280;49406;51.044;3.766;2023-12-04T10:00:18;100476.94;;;3.86;100.00
63281;BME280;49406;51.044;3.766;2023-12-04T10:02:54;100468.82;;;3.87;100.00
63281;BME280;49406;51.044;3.766;2023-12-04T10:05:29;100468.87;;;3.88;100.00
63281;BME280;49406;51.044;3.766;2023-12-04T10:08:03;100460.48;;;3.80;100.00
63281;BME280;49406;51.044;3.766;2023-12-04T10:10:38;100461.50;;;3.73;100.00
63281;BME280;49406;51.044;3.766;2023-12-04T10:13:13;100455.75;;;3.66;100.00
63281;BME280;49406;51.044;3.766;2023-12-04T10:15:51;100450.55;;;3.66;100.00
63281;BME280;49406;51.044;3.766;2023-12-04T10:18:29;100442.33;;;3.69;100.00
63281;BME280;49406;51.044;3.766;2023-12-04T10:21:05;100439.10;;;3.70;100.00
63281;BME280;49406;51.044;3.766;2023-12-04T10:23:42;100436.44;;;3.68;100.00
63281;BME280;49406;51.044;3.766;2023-12-04T10:26:17;100433.17;;;3.57;100.00
63281;BME280;49406;51.044;3.766;2023-12-04T10:29:01;100429.14;;;3.55;100.00
63281;BME280;49406;51.044;3.766;2023-12-04T10:31:36;100421.08;;;3.56;100.00
63281;BME280;49406;51.044;3.766;2023-12-04T10:34:11;100415.50;;;3.49;100.00
63281;BME280;49406;51.044;3.766;2023-12-04T10:36:46;100411.72;;;3.44;100.00
63281;BME280;49406;51.044;3.766;2023-12-04T10:39:21;100400.21;;;3.47;100.00
63281;BME280;49406;51.044;3.766;2023-12-04T10:42:03;100393.00;;;3.54;100.00
63281;BME280;49406;51.044;3.766;2023-12-04T10:44:41;100380.80;;;3.56;100.00
63281;BME280;49406;51.044;3.766;2023-12-04T10:47:16;100374.65;;;3.59;100.00
63281;BME280;49406;51.044;3.766;2023-12-04T10:49:51;100367.05;;;3.59;100.00
63281;BME280;49406;51.044;3.766;2023-12-04T10:52:26;100361.08;;;3.55;100.00
63281;BME280;49406;51.044;3.766;2023-12-04T10:55:01;100362.66;;;3.63;100.00
63281;BME280;49406;51.044;3.766;2023-12-04T10:57:40;100354.09;;;3.66;100.00
63281;BME280;49406;51.044;3.766;2023-12-04T11:00:17;100347.36;;;3.66;100.00
63281;BME280;49406;51.044;3.766;2023-12-04T11:02:56;100338.14;;;3.64;100.00
63281;BME280;49406;51.044;3.766;2023-12-04T11:05:38;100330.80;;;3.61;100.00
63281;BME280;49406;51.044;3.766;2023-12-04T11:08:16;100324.48;;;3.64;100.00
63281;BME280;49406;51.044;3.766;2023-12-04T11:10:55;100321.64;;;3.68;100.00
63281;BME280;49406;51.044;3.766;2023-12-04T11:13:32;100315.35;;;3.65;100.00
63281;BME280;49406;51.044;3.766;2023-12-04T11:16:12;100310.04;;;3.67;100.00
63281;BME280;49406;51.044;3.766;2023-12-04T11:18:47;100303.29;;;3.66;100.00
63281;BME280;49406;51.044;3.766;2023-12-04T11:21:24;100299.09;;;3.65;100.00
63281;BME280;49406;51.044;3.766;2023-12-04T11:23:59;100296.83;;;3.70;100.00
63281;BME280;49406;51.044;3.766;2023-12-04T11:26:35;100290.86;;;3.73;100.00
63281;BME280;49406;51.044;3.766;2023-12-04T11:29:11;100281.84;;;3.79;100.00
63281;BME280;49406;51.044;3.766;2023-12-04T11:31:46;100276.45;;;3.78;100.00
63281;BME280;49406;51.044;3.766;2023-12-04T11:34:21;100273.78;;;3.75;100.00
63281;BME280;49406;51.044;3.766;2023-12-04T11:36:55;100262.05;;;3.83;100.00
63281;BME280;49406;51.044;3.766;2023-12-04T11:39:34;100259.51;;;3.84;100.00
63281;BME280;49406;51.044;3.766;2023-12-04T11:42:10;100257.73;;;3.88;100.00
63281;BME280;49406;51.044;3.766;2023-12-04T11:44:45;100254.04;;;3.86;100.00
63281;BME280;49406;51.044;3.766;2023-12-04T11:47:22;100240.73;;;3.87;100.00
63281;BME280;49406;51.044;3.766;2023-12-04T11:49:56;100232.45;;;3.94;100.00
63281;BME280;49406;51.044;3.766;2023-12-04T11:52:34;100227.23;;;4.00;100.00
63281;BME280;49406;51.044;3.766;2023-12-04T11:55:11;100226.27;;;4.04;100.00
63281;BME280;49406;51.044;3.766;2023-12-04T11:57:45;100223.44;;;4.01;100.00
63281;BME280;49406;51.044;3.766;2023-12-04T12:00:23;100219.64;;;4.08;100.00
63281;BME280;49406;51.044;3.766;2023-12-04T12:03:06;100217.67;;;4.12;100.00
63281;BME280;49406;51.044;3.766;2023-12-04T12:05:43;100220.23;;;4.18;100.00
63281;BME280;49406;51.044;3.766;2023-12-04T12:08:18;100216.42;;;4.18;100.00
63281;BME280;49406;51.044;3.766;2023-12-04T12:10:52;100212.52;;;4.20;100.00
63281;BME280;49406;51.044;3.766;2023-12-04T12:13:27;100208.31;;;4.26;100.00
63281;BME280;49406;51.044;3.766;2023-12-04T12:16:02;100204.11;;;4.32;100.00
63281;BME280;49406;51.044;3.766;2023-12-04T12:18:37;100201.71;;;4.33;100.00
63281;BME280;49406;51.044;3.766;2023-12-04T12:21:13;100194.71;;;4.29;100.00
63281;BME280;49406;51.044;3.766;2023-12-04T12:23:48;100190.17;;;4.27;100.00
63281;BME280;49406;51.044;3.766;2023-12-04T12:26:23;100189.91;;;4.32;100.00
63281;BME280;49406;51.044;3.766;2023-12-04T12:28:58;100182.80;;;4.38;100.00
63281;BME280;49406;51.044;3.766;2023-12-04T12:31:32;100177.29;;;4.38;100.00
63281;BME280;49406;51.044;3.766;2023-12-04T12:34:07;100174.95;;;4.43;100.00
63281;BME280;49406;51.044;3.766;2023-12-04T12:36:40;100170.87;;;4.46;100.00
63281;BME280;49406;51.044;3.766;2023-12-04T12:39:15;100165.83;;;4.45;100.00
63281;BME280;49406;51.044;3.766;2023-12-04T12:41:50;100160.54;;;4.48;100.00
63281;BME280;49406;51.044;3.766;2023-12-04T12:44:25;100154.10;;;4.55;100.00
63281;BME280;49406;51.044;3.766;2023-12-04T12:47:04;100151.38;;;4.57;100.00
63281;BME280;49406;51.044;3.766;2023-12-04T12:49:39;100142.91;;;4.58;100.00
63281;BME280;49406;51.044;3.766;2023-12-04T12:52:14;100139.01;;;4.53;100.00
63281;BME280;49406;51.044;3.766;2023-12-04T12:54:49;100135.34;;;4.60;100.00
63281;BME280;49406;51.044;3.766;2023-12-04T12:57:24;100132.89;;;4.68;100.00
63281;BME280;49406;51.044;3.766;2023-12-04T13:00:00;100126.92;;;4.64;100.00
63281;BME280;49406;51.044;3.766;2023-12-04T13:02:38;100124.85;;;4.64;100.00
63281;BME280;49406;51.044;3.766;2023-12-04T13:05:13;100115.48;;;4.71;100.00
63281;BME280;49406;51.044;3.766;2023-12-04T13:07:50;100112.58;;;4.72;100.00
63281;BME280;49406;51.044;3.766;2023-12-04T13:10:25;100116.20;;;4.72;100.00
63281;BME280;49406;51.044;3.766;2023-12-04T13:13:00;100107.69;;;4.71;100.00
63281;BME280;49406;51.044;3.766;2023-12-04T13:15:34;100104.80;;;4.74;100.00
63281;BME280;49406;51.044;3.766;2023-12-04T13:18:09;100101.62;;;4.80;100.00
63281;BME280;49406;51.044;3.766;2023-12-04T13:20:44;100098.02;;;4.81;100.00
63281;BME280;49406;51.044;3.766;2023-12-04T13:23:18;100094.98;;;4.76;100.00
63281;BME280;49406;51.044;3.766;2023-12-04T13:25:53;100090.77;;;4.72;100.00
63281;BME280;49406;51.044;3.766;2023-12-04T13:28:28;100092.79;;;4.79;100.00
63281;BME280;49406;51.044;3.766;2023-12-04T13:31:03;100084.69;;;4.81;100.00
63281;BME280;49406;51.044;3.766;2023-12-04T13:33:38;100082.44;;;4.81;100.00